Time;durP1;ratioP1;P1;durP2;ratioP2;P2;SDS_P1;SDS_P2;PMS_P1;PMS_P2;Temp;Humidity;BMP_temperature;BMP_pressure;BME280_temperature;BME280_humidity;BME280_pressure;Samples;Min_cycle;Max_cycle;Signal;HPM_P1;HPM_P2
2023/05/18 00:19:08;;;;;;;7.80;2.30;;;8.80;94.40;;;;;;4540701;30;20607;-84
2023/05/18 01:10:15;;;;;;;6.50;2.03;;;8.70;92.10;;;;;;4574860;30;20217;-84
2023/05/18 01:45:16;;;;;;;8.43;2.80;;;8.70;94.70;;;;;;4646270;29;20696;-84
2023/05/18 02:06:16;;;;;;;7.70;2.97;;;8.40;97.10;;;;;;4791795;29;20233;-84
2023/05/18 02:10:37;;;;;;;7.50;3.00;;;8.30;96.40;;;;;;4754447;29;20228;-87
2023/05/18 02:36:38;;;;;;;6.17;2.73;;;8.00;99.90;;;;;;4715527;29;20408;-83
2023/05/18 03:12:11;;;;;;;9.80;3.33;;;7.80;99.90;;;;;;4794313;29;20210;-83
2023/05/18 03:16:31;;;;;;;10.13;2.83;;;7.90;99.90;;;;;;4717869;29;20332;-86
2023/05/18 03:37:07;;;;;;;5.83;2.97;;;8.00;99.90;;;;;;4692043;29;20500;-83
2023/05/18 03:57:27;;;;;;;8.10;3.00;;;8.20;99.80;;;;;;4510125;30;20626;-84
2023/05/18 04:26:45;;;;;;;8.70;2.80;;;8.40;98.20;;;;;;4448474;31;20358;-87
2023/05/18 05:32:36;;;;;;;6.37;2.60;;;9.20;97.10;;;;;;4555262;30;20498;-85
2023/05/18 05:53:06;;;;;;;3.87;2.43;;;9.70;97.10;;;;;;4562365;30;20242;-86
2023/05/18 06:23:13;;;;;;;3.97;1.97;;;10.10;93.60;;;;;;4460651;30;20279;-85
2023/05/18 06:43:49;;;;;;;2.67;1.77;;;10.90;89.50;;;;;;4555376;30;20212;-83
2023/05/18 07:04:21;;;;;;;2.83;1.60;;;10.70;88.30;;;;;;4457400;31;20419;-82
2023/05/18 07:29:35;;;;;;;3.93;1.50;;;11.20;88.40;;;;;;4414778;31;20394;-85
2023/05/18 07:49:29;;;;;;;4.17;1.90;;;12.10;84.70;;;;;;4418655;31;20663;-85
2023/05/18 08:50:46;;;;;;;1.43;1.13;;;12.70;81.40;;;;;;4705655;29;21106;-85
2023/05/18 09:36:29;;;;;;;2.83;1.33;;;13.60;83.30;;;;;;4656572;29;20205;-85
2023/05/18 10:01:28;;;;;;;2.70;1.53;;;13.90;81.80;;;;;;4615261;29;20222;-85
2023/05/18 10:27:11;;;;;;;3.53;1.40;;;13.90;82.50;;;;;;4580237;30;20212;-84
2023/05/18 10:57:34;;;;;;;2.97;1.40;;;14.50;78.70;;;;;;4487279;30;20249;-85
2023/05/18 11:33:11;;;;;;;3.00;1.13;;;14.80;77.70;;;;;;4616745;29;20949;-81
2023/05/18 12:03:27;;;;;;;1.73;0.87;;;15.20;75.90;;;;;;4675237;29;20224;-82
2023/05/18 12:28:17;;;;;;;2.50;1.10;;;15.90;77.30;;;;;;4575315;29;21009;-84
2023/05/18 12:48:57;;;;;;;0.83;0.80;;;16.90;68.70;;;;;;4623647;29;20453;-84
2023/05/18 13:14:09;;;;;;;1.60;0.80;;;15.90;71.80;;;;;;4532610;30;21263;-84
2023/05/18 13:44:21;;;;;;;1.60;1.00;;;16.00;72.40;;;;;;4533896;30;20511;-83
2023/05/18 14:05:07;;;;;;;2.77;1.50;;;14.90;78.30;;;;;;4601279;30;20545;-84
2023/05/18 14:30:27;;;;;;;0.70;0.70;;;14.90;77.00;;;;;;4648076;30;20402;-82
2023/05/18 14:56:07;;;;;;;2.40;1.00;;;14.60;79.90;;;;;;4761381;29;20246;-84
2023/05/18 15:00:27;;;;;;;1.80;1.00;;;14.40;79.80;;;;;;4714650;30;20225;-85
2023/05/18 16:01:23;;;;;;;2.93;1.40;;;14.10;81.30;;;;;;4606825;30;20538;-83
2023/05/18 16:47:32;;;;;;;2.57;1.20;;;13.80;83.30;;;;;;4571283;30;20265;-86
2023/05/18 17:12:46;;;;;;;3.30;1.70;;;13.60;84.50;;;;;;4684692;30;20277;-87
2023/05/18 17:33:10;;;;;;;2.80;1.63;;;13.40;85.60;;;;;;4578904;31;20786;-85
2023/05/18 18:23:41;;;;;;;5.37;3.10;;;13.00;90.30;;;;;;4569987;31;20261;-87
2023/05/18 18:49:14;;;;;;;3.93;2.80;;;12.60;91.90;;;;;;4687119;30;20215;-86
2023/05/18 19:19:46;;;;;;;5.37;4.07;;;12.50;93.30;;;;;;4848486;29;20240;-85
2023/05/18 19:44:48;;;;;;;6.60;3.10;;;12.60;91.30;;;;;;4689827;30;20230;-84
2023/05/18 20:00:15;;;;;;;4.27;3.83;;;12.40;92.20;;;;;;4662867;30;20298;-84
2023/05/18 20:25:33;;;;;;;5.83;3.60;;;12.50;91.20;;;;;;4628091;30;20251;-86
2023/05/18 20:45:52;;;;;;;3.33;2.90;;;12.60;88.80;;;;;;4718241;30;20212;-86
2023/05/18 21:15:48;;;;;;;3.67;2.47;;;12.50;90.00;;;;;;4664790;30;20512;-87
2023/05/18 21:41:37;;;;;;;5.10;3.57;;;12.30;91.60;;;;;;4611002;30;20232;-83
2023/05/18 22:26:43;;;;;;;5.47;3.33;;;11.70;99.90;;;;;;4576236;30;20388;-89
2023/05/18 23:23:05;;;;;;;5.87;4.30;;;11.00;99.90;;;;;;4579592;30;20349;-82
2023/05/18 23:52:54;;;;;;;4.00;3.40;;;10.80;99.90;;;;;;4580572;31;20597;-85
